Time;durP1;ratioP1;P1;durP2;ratioP2;P2;SDS_P1;SDS_P2;PMS_P1;PMS_P2;Temp;Humidity;BMP_temperature;BMP_pressure;BME280_temperature;BME280_humidity;BME280_pressure;Samples;Min_cycle;Max_cycle;Signal;HPM_P1;HPM_P2
2022/12/28 00:00:18;;;;;;;;;;;;;;;17.45;49.23;101781.88;5096779;28;1138;-51
2022/12/28 00:02:43;;;;;;;;;;;;;;;17.05;48.48;101788.44;5095930;28;1115;-52
2022/12/28 00:05:09;;;;;;;;;;;;;;;17.18;49.10;101798.28;5096349;28;1066;-53
2022/12/28 00:07:34;;;;;;;;;;;;;;;17.82;48.96;101801.56;5095855;28;1898;-52
2022/12/28 00:09:59;;;;;;;;;;;;;;;17.14;49.54;101801.78;5096604;28;1099;-50
2022/12/28 00:12:25;;;;;;;;;;;;;;;19.05;47.24;101822.06;5093607;28;2448;-53
2022/12/28 00:14:50;;;;;;;;;;;;;;;17.86;48.84;101833.81;5096602;28;1095;-52
2022/12/28 00:17:16;;;;;;;;;;;;;;;17.38;48.21;101836.22;5095905;28;1007;-57
2022/12/28 00:19:41;;;;;;;;;;;;;;;17.32;48.57;101845.50;5096052;28;859;-53
2022/12/28 00:22:06;;;;;;;;;;;;;;;17.81;49.20;101841.16;5095795;28;1039;-54
2022/12/28 00:24:33;;;;;;;;;;;;;;;17.30;48.70;101839.41;5096340;28;1166;-54
2022/12/28 00:26:59;;;;;;;;;;;;;;;17.38;49.23;101851.91;5096366;28;1026;-55
2022/12/28 00:29:24;;;;;;;;;;;;;;;17.72;49.13;101855.38;5095860;28;1909;-54
2022/12/28 00:31:49;;;;;;;;;;;;;;;17.31;48.62;101856.75;5094776;28;851;-49
2022/12/28 00:34:15;;;;;;;;;;;;;;;18.01;48.98;101863.47;5096613;28;1111;-51
2022/12/28 00:36:40;;;;;;;;;;;;;;;17.46;49.27;101867.97;5095953;28;1074;-50
2022/12/28 00:39:07;;;;;;;;;;;;;;;17.09;48.30;101873.97;5095738;28;1179;-51
2022/12/28 00:41:33;;;;;;;;;;;;;;;17.53;48.94;101884.25;5096211;28;1086;-54
2022/12/28 00:43:59;;;;;;;;;;;;;;;17.88;48.93;101883.94;5094364;28;1747;-52
2022/12/28 00:46:24;;;;;;;;;;;;;;;17.24;49.28;101865.16;5095113;28;1549;-51
2022/12/28 00:48:50;;;;;;;;;;;;;;;19.08;46.95;101868.44;5095873;28;1909;-48
2022/12/28 00:51:16;;;;;;;;;;;;;;;17.81;48.99;101871.44;5096514;28;1008;-48
2022/12/28 00:53:42;;;;;;;;;;;;;;;17.31;48.21;101854.81;5095974;28;1134;-50
2022/12/28 00:56:17;;;;;;;;;;;;;;;18.23;48.71;101846.94;5087712;28;1216;-50
2022/12/28 00:58:42;;;;;;;;;;;;;;;17.42;48.71;101859.38;5096326;28;1117;-53
2022/12/28 01:01:21;;;;;;;;;;;;;;;17.14;47.97;101867.72;5094995;28;1250;-52
2022/12/28 01:03:46;;;;;;;;;;;;;;;18.44;48.10;101869.19;5087124;28;1019;-53
2022/12/28 01:06:12;;;;;;;;;;;;;;;17.38;49.11;101874.72;5098485;28;1050;-55
2022/12/28 01:08:38;;;;;;;;;;;;;;;17.03;48.37;101878.56;5091798;28;1897;-54
2022/12/28 01:11:10;;;;;;;;;;;;;;;17.60;48.95;101887.69;5094832;28;1123;-53
2022/12/28 01:13:35;;;;;;;;;;;;;;;17.33;48.80;101882.88;5092714;28;2477;-49
2022/12/28 01:16:08;;;;;;;;;;;;;;;17.35;49.29;101877.97;5099826;28;1146;-52
2022/12/28 01:18:34;;;;;;;;;;;;;;;18.23;48.25;101891.00;5099357;28;1031;-49
2022/12/28 01:20:59;;;;;;;;;;;;;;;17.30;48.95;101902.63;5098097;28;1051;-49
2022/12/28 01:23:24;;;;;;;;;;;;;;;18.55;48.07;101919.69;5099996;28;1212;-52
2022/12/28 01:25:50;;;;;;;;;;;;;;;17.86;48.81;101918.28;5099526;28;1059;-49
2022/12/28 01:28:15;;;;;;;;;;;;;;;17.88;49.18;101921.59;5099643;28;1980;-51
2022/12/28 01:30:41;;;;;;;;;;;;;;;19.00;47.26;101912.16;5097873;28;1303;-49
2022/12/28 01:33:06;;;;;;;;;;;;;;;17.78;48.59;101903.88;5099968;28;1087;-53
2022/12/28 01:35:33;;;;;;;;;;;;;;;17.35;48.22;101902.72;5099588;28;1142;-50
2022/12/28 01:37:58;;;;;;;;;;;;;;;18.20;48.36;101912.69;5098968;28;1106;-51
2022/12/28 01:40:24;;;;;;;;;;;;;;;17.38;48.84;101926.13;5097799;28;1190;-50
2022/12/28 01:42:49;;;;;;;;;;;;;;;17.57;49.10;101937.69;5097036;28;2507;-51
2022/12/28 01:45:19;;;;;;;;;;;;;;;17.96;48.83;101943.22;5099366;28;1018;-50
2022/12/28 01:47:44;;;;;;;;;;;;;;;17.25;48.78;101947.38;5099112;28;1902;-50
2022/12/28 01:50:11;;;;;;;;;;;;;;;18.36;48.54;101961.34;5098489;28;1031;-53
2022/12/28 01:52:43;;;;;;;;;;;;;;;17.54;49.09;101966.50;5098937;28;974;-51
2022/12/28 01:55:13;;;;;;;;;;;;;;;17.28;49.04;101959.78;5098140;28;1115;-53
2022/12/28 01:57:41;;;;;;;;;;;;;;;18.05;48.76;101958.22;5098972;28;1103;-52
2022/12/28 02:00:08;;;;;;;;;;;;;;;17.36;48.87;101966.78;5097499;28;1428;-54
2022/12/28 02:02:47;;;;;;;;;;;;;;;18.65;47.79;101972.16;5097964;28;1047;-53
2022/12/28 02:05:13;;;;;;;;;;;;;;;17.64;48.89;101974.09;5084588;28;1113;-51
2022/12/28 02:07:42;;;;;;;;;;;;;;;17.46;49.55;101964.22;5097099;28;1893;-53
2022/12/28 02:10:08;;;;;;;;;;;;;;;18.10;48.73;101969.28;5084601;28;1190;-49
2022/12/28 02:12:33;;;;;;;;;;;;;;;17.47;48.34;101971.34;5072262;28;2358;-50
2022/12/28 02:14:59;;;;;;;;;;;;;;;17.13;48.22;101970.53;5098617;28;1110;-49
2022/12/28 02:17:25;;;;;;;;;;;;;;;18.04;48.45;101981.31;5098492;28;1154;-49
2022/12/28 02:19:50;;;;;;;;;;;;;;;17.29;48.67;101980.69;5096983;28;925;-48
2022/12/28 02:22:15;;;;;;;;;;;;;;;18.20;48.62;101981.50;5098540;28;1101;-52
2022/12/28 02:24:44;;;;;;;;;;;;;;;17.72;48.82;101965.41;5097643;28;1104;-53
2022/12/28 02:27:09;;;;;;;;;;;;;;;17.23;48.44;101959.69;5098372;28;1897;-51
2022/12/28 02:29:57;;;;;;;;;;;;;;;18.28;48.30;101967.31;5098074;28;1201;-52
2022/12/28 02:32:28;;;;;;;;;;;;;;;17.38;48.75;101967.38;5093876;28;1356;-50
2022/12/28 02:34:56;;;;;;;;;;;;;;;18.76;47.54;101959.31;5070302;28;1292;-50
2022/12/28 02:37:30;;;;;;;;;;;;;;;18.34;48.24;101962.69;5096624;28;1022;-48
2022/12/28 02:40:01;;;;;;;;;;;;;;;17.57;48.41;101956.94;5098071;28;1094;-49
2022/12/28 02:42:26;;;;;;;;;;;;;;;18.31;48.38;101966.78;5075030;28;2299;-50
2022/12/28 02:50:20;;;;;;;;;;;;;;;18.26;48.04;101984.09;5098106;28;1130;-51
2022/12/28 02:52:56;;;;;;;;;;;;;;;17.34;48.66;102010.19;5096623;28;995;-47
2022/12/28 02:58:19;;;;;;;;;;;;;;;17.95;48.68;102021.38;5095970;28;1393;-50
2022/12/28 03:00:57;;;;;;;;;;;;;;;17.44;48.37;101999.34;5096554;28;1204;-50
2022/12/28 03:03:22;;;;;;;;;;;;;;;17.14;47.40;102005.16;5096521;28;1151;-51
2022/12/28 03:08:42;;;;;;;;;;;;;;;18.07;48.60;102007.50;5092859;28;1976;-48
2022/12/28 03:11:08;;;;;;;;;;;;;;;17.28;48.52;102015.59;5097392;28;1113;-49
2022/12/28 03:13:41;;;;;;;;;;;;;;;17.03;47.53;102015.13;5088337;28;2529;-51
2022/12/28 03:16:28;;;;;;;;;;;;;;;18.07;48.79;102024.00;5079047;28;1402;-54
2022/12/28 03:32:51;;;;;;;;;;;;;;;17.37;48.76;102043.50;5081495;28;1315;-47
2022/12/28 03:35:16;;;;;;;;;;;;;;;17.75;49.19;102050.22;5095230;28;1919;-50
2022/12/28 03:37:46;;;;;;;;;;;;;;;17.53;49.29;102039.13;5078617;28;1098;-52
2022/12/28 03:40:27;;;;;;;;;;;;;;;17.16;48.22;102045.03;5095566;28;1384;-51
2022/12/28 03:45:41;;;;;;;;;;;;;;;17.62;48.84;102051.34;5095553;28;1004;-51
2022/12/28 03:48:07;;;;;;;;;;;;;;;17.44;49.19;102041.41;5095111;28;1905;-51
2022/12/28 03:50:37;;;;;;;;;;;;;;;19.21;46.69;102057.41;5095787;28;1051;-52
2022/12/28 03:53:02;;;;;;;;;;;;;;;17.83;48.97;102064.63;5095596;28;1101;-52
2022/12/28 03:55:29;;;;;;;;;;;;;;;17.31;48.30;102061.00;5095171;28;1081;-51
2022/12/28 03:57:55;;;;;;;;;;;;;;;18.05;49.08;102065.56;5096343;28;1046;-48
2022/12/28 04:00:24;;;;;;;;;;;;;;;17.65;49.00;102071.22;5095583;28;1370;-52
2022/12/28 04:02:52;;;;;;;;;;;;;;;17.19;48.39;102077.53;5095309;28;1168;-52
2022/12/28 04:05:17;;;;;;;;;;;;;;;18.19;48.50;102081.69;5095132;28;1350;-46
2022/12/28 04:07:43;;;;;;;;;;;;;;;17.35;48.48;102094.31;5095017;28;1992;-46
2022/12/28 04:10:09;;;;;;;;;;;;;;;18.83;47.40;102088.63;5095249;28;1120;-46
2022/12/28 04:12:35;;;;;;;;;;;;;;;18.05;48.59;102095.81;5087027;28;2460;-50
2022/12/28 04:15:23;;;;;;;;;;;;;;;17.41;48.23;102085.91;5095028;28;1360;-48
2022/12/28 04:17:49;;;;;;;;;;;;;;;18.42;48.10;102088.94;5094963;28;1395;-50
2022/12/28 04:20:15;;;;;;;;;;;;;;;17.50;48.80;102091.03;5094689;28;2007;-47
2022/12/28 04:22:41;;;;;;;;;;;;;;;17.24;47.76;102099.63;5095056;28;1380;-53
2022/12/28 04:25:07;;;;;;;;;;;;;;;17.03;47.39;102092.09;5096566;28;1039;-46
2022/12/28 04:27:33;;;;;;;;;;;;;;;17.94;48.25;102094.81;5095696;28;1905;-47
2022/12/28 04:30:05;;;;;;;;;;;;;;;17.19;48.33;102095.94;5094855;28;1188;-47
2022/12/28 04:32:33;;;;;;;;;;;;;;;18.85;47.22;102101.06;5094806;28;1335;-43
2022/12/28 04:35:00;;;;;;;;;;;;;;;17.84;48.96;102107.53;5094693;28;1843;-49
2022/12/28 04:37:29;;;;;;;;;;;;;;;17.33;48.40;102113.00;5094792;28;1295;-48
2022/12/28 04:39:55;;;;;;;;;;;;;;;17.06;47.44;102128.13;5095776;28;1198;-51
2022/12/28 04:42:20;;;;;;;;;;;;;;;17.89;48.82;102132.41;5094917;28;2352;-52
2022/12/28 04:44:45;;;;;;;;;;;;;;;17.22;48.68;102128.44;5095932;28;1114;-51
2022/12/28 04:47:12;;;;;;;;;;;;;;;17.32;48.78;102145.16;5096107;28;1039;-52
2022/12/28 04:49:37;;;;;;;;;;;;;;;17.94;48.56;102141.59;5095728;28;1959;-47
2022/12/28 04:52:03;;;;;;;;;;;;;;;17.30;48.21;102140.97;5095373;28;1221;-49
2022/12/28 04:54:28;;;;;;;;;;;;;;;17.04;47.56;102144.06;5091430;28;1273;-47
2022/12/28 04:56:54;;;;;;;;;;;;;;;18.16;47.92;102138.13;5081787;28;1189;-52
2022/12/28 04:59:19;;;;;;;;;;;;;;;17.26;48.49;102146.13;5081146;28;1244;-51
2022/12/28 05:01:45;;;;;;;;;;;;;;;18.22;48.29;102161.88;5091647;28;904;-53
2022/12/28 05:04:10;;;;;;;;;;;;;;;17.99;48.58;102153.78;5075787;28;1007;-51
2022/12/28 05:06:36;;;;;;;;;;;;;;;17.28;48.43;102152.22;5078397;28;1182;-52
2022/12/28 05:09:01;;;;;;;;;;;;;;;18.60;47.80;102160.25;5085957;28;1906;-54
2022/12/28 05:11:27;;;;;;;;;;;;;;;17.46;48.91;102162.19;5087622;28;1177;-53
2022/12/28 05:13:52;;;;;;;;;;;;;;;17.68;48.99;102158.72;5085810;28;2200;-54
2022/12/28 05:16:19;;;;;;;;;;;;;;;17.99;48.57;102146.34;5086935;28;1335;-54
2022/12/28 05:18:44;;;;;;;;;;;;;;;17.24;48.94;102148.28;5079792;28;1521;-56
2022/12/28 05:21:13;;;;;;;;;;;;;;;17.60;48.75;102151.72;5085473;28;1075;-56
2022/12/28 05:23:38;;;;;;;;;;;;;;;17.50;48.92;102157.03;5086316;28;1027;-56
2022/12/28 05:26:04;;;;;;;;;;;;;;;17.18;48.01;102163.00;5091427;28;1240;-54
2022/12/28 05:28:29;;;;;;;;;;;;;;;18.41;47.77;102162.47;5088290;28;1914;-54
2022/12/28 05:30:59;;;;;;;;;;;;;;;17.38;48.58;102166.16;5078225;28;1158;-53
2022/12/28 05:33:24;;;;;;;;;;;;;;;17.29;48.55;102173.13;5093913;28;775;-48
2022/12/28 05:35:50;;;;;;;;;;;;;;;17.92;48.28;102173.22;5091101;28;1118;-50
2022/12/28 05:38:15;;;;;;;;;;;;;;;17.28;48.46;102176.97;5086771;28;1118;-51
2022/12/28 05:40:40;;;;;;;;;;;;;;;17.87;48.58;102178.63;5094526;28;1123;-54
2022/12/28 05:43:06;;;;;;;;;;;;;;;17.39;48.68;102181.59;5092489;28;2095;-51
2022/12/28 05:45:31;;;;;;;;;;;;;;;17.02;48.03;102181.09;5095201;28;1214;-55
2022/12/28 05:47:57;;;;;;;;;;;;;;;17.79;48.36;102177.94;5082522;28;1909;-51
2022/12/28 05:50:22;;;;;;;;;;;;;;;17.17;48.62;102180.59;5099097;28;1058;-51
2022/12/28 05:52:47;;;;;;;;;;;;;;;18.51;47.50;102171.94;5097680;28;1038;-45
2022/12/28 05:55:13;;;;;;;;;;;;;;;17.78;48.41;102175.41;5096126;28;1471;-51
2022/12/28 05:57:38;;;;;;;;;;;;;;;17.28;48.34;102179.72;5091553;28;1190;-48
2022/12/28 06:00:04;;;;;;;;;;;;;;;17.68;48.84;102184.31;5092305;28;1507;-51
2022/12/28 06:02:37;;;;;;;;;;;;;;;17.93;48.42;102188.66;5098633;28;1098;-49
2022/12/28 06:05:02;;;;;;;;;;;;;;;17.52;49.31;102194.19;5079197;28;931;-48
2022/12/28 06:07:28;;;;;;;;;;;;;;;19.32;46.03;102201.72;5088804;28;1913;-50
2022/12/28 06:09:53;;;;;;;;;;;;;;;17.90;48.59;102194.63;5088727;28;891;-49
2022/12/28 06:12:18;;;;;;;;;;;;;;;17.36;48.23;102201.31;5095650;28;1865;-50
2022/12/28 06:14:44;;;;;;;;;;;;;;;18.37;48.13;102194.34;5098154;28;1132;-56
2022/12/28 06:17:09;;;;;;;;;;;;;;;17.39;48.80;102200.84;5084881;28;947;-47
2022/12/28 06:19:35;;;;;;;;;;;;;;;17.16;47.99;102196.22;5098701;28;1018;-52
2022/12/28 06:22:00;;;;;;;;;;;;;;;18.06;48.62;102204.84;5094871;28;885;-51
2022/12/28 06:24:25;;;;;;;;;;;;;;;17.79;48.40;102201.84;5098057;28;929;-48
2022/12/28 06:26:51;;;;;;;;;;;;;;;17.88;48.64;102208.63;5097789;28;1014;-51
2022/12/28 06:29:16;;;;;;;;;;;;;;;17.42;49.57;102216.84;5097623;28;1929;-47
2022/12/28 06:31:46;;;;;;;;;;;;;;;17.19;50.24;102217.72;5085000;28;916;-50
2022/12/28 06:34:12;;;;;;;;;;;;;;;16.90;50.56;102209.44;5088692;28;966;-50
2022/12/28 06:36:38;;;;;;;;;;;;;;;16.80;51.08;102213.81;5097812;28;1009;-47
2022/12/28 06:39:04;;;;;;;;;;;;;;;16.57;51.55;102216.31;5077771;28;1104;-48
2022/12/28 06:41:31;;;;;;;;;;;;;;;16.43;51.67;102215.72;5091346;28;1055;-51
2022/12/28 06:43:57;;;;;;;;;;;;;;;16.31;51.99;102225.00;5077236;28;2034;-51
2022/12/28 06:46:23;;;;;;;;;;;;;;;16.17;52.00;102219.75;5090816;28;991;-50
2022/12/28 06:48:49;;;;;;;;;;;;;;;16.07;52.44;102225.81;5090752;28;1987;-49
2022/12/28 06:51:19;;;;;;;;;;;;;;;15.97;52.28;102228.28;5091533;28;1034;-52
2022/12/28 06:53:44;;;;;;;;;;;;;;;15.90;52.33;102238.53;5097169;28;1078;-49
2022/12/28 06:56:11;;;;;;;;;;;;;;;15.76;52.29;102247.97;5090273;28;1178;-49
2022/12/28 06:58:36;;;;;;;;;;;;;;;15.63;52.95;102241.59;5084993;28;929;-51
2022/12/28 07:01:05;;;;;;;;;;;;;;;17.11;49.95;102237.38;5089715;28;1285;-50
2022/12/28 07:03:31;;;;;;;;;;;;;;;16.57;51.11;102248.44;5078940;28;947;-49
2022/12/28 07:05:58;;;;;;;;;;;;;;;16.12;52.38;102251.69;5090476;28;1150;-49
2022/12/28 07:08:24;;;;;;;;;;;;;;;15.90;52.60;102246.75;5085986;28;1975;-49
2022/12/28 07:10:49;;;;;;;;;;;;;;;15.76;52.76;102251.56;5083546;28;1476;-51
2022/12/28 07:13:15;;;;;;;;;;;;;;;15.64;53.11;102259.75;5083341;28;2099;-49
2022/12/28 07:15:40;;;;;;;;;;;;;;;15.68;52.97;102262.84;5079518;28;1103;-48
2022/12/28 07:18:05;;;;;;;;;;;;;;;17.31;49.10;102258.94;5096719;28;1124;-51
2022/12/28 07:20:31;;;;;;;;;;;;;;;16.45;51.31;102261.31;5097235;28;1089;-52
2022/12/28 07:22:56;;;;;;;;;;;;;;;16.02;52.38;102266.84;5096311;28;844;-48
2022/12/28 07:25:22;;;;;;;;;;;;;;;15.82;52.86;102253.41;5089857;28;1097;-47
2022/12/28 07:27:47;;;;;;;;;;;;;;;15.67;52.93;102262.00;5096704;28;1902;-49
2022/12/28 07:30:13;;;;;;;;;;;;;;;15.59;53.40;102265.06;5096342;28;1062;-49
2022/12/28 07:32:38;;;;;;;;;;;;;;;17.19;49.51;102264.44;5096821;28;1002;-47
2022/12/28 07:35:04;;;;;;;;;;;;;;;16.54;50.94;102265.41;5092911;28;956;-48
2022/12/28 07:37:29;;;;;;;;;;;;;;;16.05;51.88;102268.28;5086317;28;1138;-51
2022/12/28 07:39:54;;;;;;;;;;;;;;;15.83;52.81;102263.28;5096182;28;1120;-50
2022/12/28 07:42:20;;;;;;;;;;;;;;;15.68;53.17;102271.06;5092344;28;1951;-50
2022/12/28 07:44:46;;;;;;;;;;;;;;;16.30;51.69;102270.00;5095630;28;1185;-48
2022/12/28 07:47:12;;;;;;;;;;;;;;;17.17;49.26;102268.53;5086514;28;923;-49
2022/12/28 07:49:37;;;;;;;;;;;;;;;16.22;51.75;102279.41;5095214;28;1905;-51
2022/12/28 07:52:03;;;;;;;;;;;;;;;15.90;52.30;102275.00;5095998;28;987;-52
2022/12/28 07:54:28;;;;;;;;;;;;;;;15.74;52.72;102279.22;5078317;28;1223;-51
2022/12/28 07:56:54;;;;;;;;;;;;;;;15.61;53.14;102273.88;5093589;28;1348;-48
2022/12/28 07:59:19;;;;;;;;;;;;;;;16.56;50.88;102291.56;5075837;28;895;-49
2022/12/28 08:01:44;;;;;;;;;;;;;;;16.87;49.83;102291.44;5084185;28;1269;-48
2022/12/28 08:04:13;;;;;;;;;;;;;;;16.06;51.91;102291.88;5087735;28;991;-48
2022/12/28 08:06:39;;;;;;;;;;;;;;;15.80;52.77;102287.63;5079889;28;896;-50
2022/12/28 08:09:05;;;;;;;;;;;;;;;15.67;52.76;102281.19;5075901;28;1905;-48
2022/12/28 08:11:32;;;;;;;;;;;;;;;15.64;53.29;102284.41;5075240;28;1014;-52
2022/12/28 08:13:58;;;;;;;;;;;;;;;17.26;49.12;102289.06;5082957;28;2192;-52
2022/12/28 08:16:25;;;;;;;;;;;;;;;16.51;50.97;102298.81;5096146;28;1189;-46
2022/12/28 08:18:51;;;;;;;;;;;;;;;16.03;51.99;102298.69;5084377;28;1113;-50
2022/12/28 08:21:17;;;;;;;;;;;;;;;15.80;52.69;102287.63;5090855;28;1038;-50
2022/12/28 08:23:42;;;;;;;;;;;;;;;15.58;52.95;102290.81;5085562;28;1064;-51
2022/12/28 08:26:07;;;;;;;;;;;;;;;16.53;50.81;102296.69;5093559;28;1027;-48
2022/12/28 08:28:33;;;;;;;;;;;;;;;16.82;49.94;102291.34;5095514;28;1969;-51
2022/12/28 08:31:03;;;;;;;;;;;;;;;16.08;51.70;102289.75;5082510;28;1236;-50
2022/12/28 08:33:29;;;;;;;;;;;;;;;15.81;52.68;102294.75;5095717;28;1066;-50
2022/12/28 08:35:55;;;;;;;;;;;;;;;16.62;50.83;102295.28;5095661;28;1093;-52
2022/12/28 08:38:21;;;;;;;;;;;;;;;17.17;48.86;102288.59;5095440;28;1131;-52
2022/12/28 08:40:53;;;;;;;;;;;;;;;16.34;51.32;102283.03;5090412;28;1023;-52
2022/12/28 08:43:18;;;;;;;;;;;;;;;15.95;52.14;102279.81;5089391;28;2276;-52
2022/12/28 08:45:44;;;;;;;;;;;;;;;15.77;52.43;102288.88;5081736;28;1146;-53
2022/12/28 08:48:09;;;;;;;;;;;;;;;15.64;52.80;102289.03;5095064;28;1903;-53
2022/12/28 08:50:35;;;;;;;;;;;;;;;16.79;50.16;102278.06;5096083;28;1058;-52
2022/12/28 08:53:00;;;;;;;;;;;;;;;17.16;48.89;102273.19;5081881;28;1117;-54
2022/12/28 08:55:25;;;;;;;;;;;;;;;16.30;51.34;102281.84;5091881;28;1348;-51
2022/12/28 08:57:51;;;;;;;;;;;;;;;15.95;52.17;102279.81;5082426;28;935;-53
2022/12/28 09:00:16;;;;;;;;;;;;;;;16.41;51.25;102272.78;5084420;28;1353;-53
2022/12/28 09:02:42;;;;;;;;;;;;;;;17.15;48.93;102276.19;5079404;28;919;-47
2022/12/28 09:05:07;;;;;;;;;;;;;;;16.28;51.29;102277.66;5094527;28;995;-47
2022/12/28 09:07:33;;;;;;;;;;;;;;;16.01;52.01;102272.56;5095168;28;1984;-48
2022/12/28 09:09:58;;;;;;;;;;;;;;;17.36;48.73;102266.47;5093773;28;1196;-49
2022/12/28 09:12:24;;;;;;;;;;;;;;;16.43;50.94;102259.66;5089094;28;1973;-47
2022/12/28 09:14:49;;;;;;;;;;;;;;;16.08;51.85;102268.63;5092538;28;1206;-50
2022/12/28 09:17:15;;;;;;;;;;;;;;;15.89;52.35;102272.50;5090942;28;974;-50
2022/12/28 09:19:40;;;;;;;;;;;;;;;15.69;52.46;102265.34;5090207;28;1182;-48
2022/12/28 09:22:06;;;;;;;;;;;;;;;15.83;52.57;102271.53;5083952;28;1200;-50
2022/12/28 09:24:31;;;;;;;;;;;;;;;17.41;48.48;102275.66;5081863;28;1059;-48
2022/12/28 09:26:57;;;;;;;;;;;;;;;16.41;50.90;102264.56;5088109;28;1081;-47
2022/12/28 09:29:22;;;;;;;;;;;;;;;16.06;51.67;102270.78;5096734;28;1988;-47
2022/12/28 09:31:47;;;;;;;;;;;;;;;15.81;52.47;102275.56;5095175;28;1003;-47
2022/12/28 09:34:13;;;;;;;;;;;;;;;15.67;52.77;102272.97;5096028;28;1007;-48
2022/12/28 09:36:42;;;;;;;;;;;;;;;16.77;49.96;102275.56;5099088;28;1038;-49
2022/12/28 09:39:12;;;;;;;;;;;;;;;16.75;49.72;102273.06;5096663;28;1254;-47
2022/12/28 09:41:40;;;;;;;;;;;;;;;16.06;51.45;102259.81;5087116;28;1981;-47
2022/12/28 09:44:14;;;;;;;;;;;;;;;15.84;52.44;102261.41;5092910;28;1154;-49
2022/12/28 09:47:11;;;;;;;;;;;;;;;17.18;48.83;102260.06;5084906;28;1099;-48
2022/12/28 09:49:42;;;;;;;;;;;;;;;16.53;50.36;102266.47;5080678;28;1905;-52
2022/12/28 09:52:28;;;;;;;;;;;;;;;16.05;51.57;102258.13;5085164;28;943;-51
2022/12/28 09:54:54;;;;;;;;;;;;;;;15.83;52.08;102252.31;5096161;28;1046;-50
2022/12/28 09:57:19;;;;;;;;;;;;;;;15.69;52.58;102257.13;5093351;28;1409;-50
2022/12/28 09:59:45;;;;;;;;;;;;;;;15.98;52.18;102257.41;5094899;28;1269;-48
2022/12/28 10:02:18;;;;;;;;;;;;;;;17.36;48.20;102245.31;5097510;28;1213;-45
2022/12/28 10:04:46;;;;;;;;;;;;;;;16.30;51.02;102253.53;5084751;28;911;-44
2022/12/28 10:07:11;;;;;;;;;;;;;;;15.92;51.94;102244.59;5098171;28;1093;-49
2022/12/28 10:09:37;;;;;;;;;;;;;;;15.73;52.33;102250.09;5097849;28;1976;-47
2022/12/28 10:12:10;;;;;;;;;;;;;;;16.60;50.12;102246.03;5094051;28;1961;-48
2022/12/28 10:14:35;;;;;;;;;;;;;;;16.84;49.41;102237.00;5090705;28;1027;-49
2022/12/28 10:17:01;;;;;;;;;;;;;;;16.14;51.10;102239.41;5079045;28;999;-48
2022/12/28 10:19:26;;;;;;;;;;;;;;;15.85;52.05;102236.47;5098047;28;1083;-49
2022/12/28 10:22:01;;;;;;;;;;;;;;;15.70;52.45;102234.13;5088392;28;1091;-44
2022/12/28 10:24:27;;;;;;;;;;;;;;;17.02;49.06;102236.06;5095121;28;1082;-45
2022/12/28 10:26:53;;;;;;;;;;;;;;;16.68;49.80;102244.88;5097403;28;1293;-50
2022/12/28 10:29:19;;;;;;;;;;;;;;;16.06;51.61;102237.84;5089930;28;2000;-47
2022/12/28 10:31:54;;;;;;;;;;;;;;;15.81;51.96;102240.75;5087044;28;935;-47
2022/12/28 10:34:21;;;;;;;;;;;;;;;15.83;52.27;102235.03;5087779;28;1075;-48
2022/12/28 10:36:47;;;;;;;;;;;;;;;17.47;48.22;102234.50;5089894;28;1035;-47
2022/12/28 10:39:14;;;;;;;;;;;;;;;16.60;49.88;102236.97;5096907;28;1253;-47
2022/12/28 10:41:39;;;;;;;;;;;;;;;16.10;51.31;102234.63;5097100;28;2398;-50
2022/12/28 10:44:15;;;;;;;;;;;;;;;16.52;50.32;102240.06;5091038;28;1024;-49
2022/12/28 10:46:48;;;;;;;;;;;;;;;16.74;49.79;102238.41;5076536;28;999;-49
2022/12/28 10:49:14;;;;;;;;;;;;;;;16.14;51.03;102236.66;5084562;28;1913;-52
2022/12/28 10:51:39;;;;;;;;;;;;;;;15.89;51.99;102242.31;5096928;28;1022;-51
2022/12/28 10:54:07;;;;;;;;;;;;;;;15.73;52.08;102239.13;5089032;28;1182;-49
2022/12/28 10:56:34;;;;;;;;;;;;;;;15.62;52.27;102228.94;5107039;28;1316;-50
2022/12/28 10:59:11;;;;;;;;;;;;;;;17.04;49.28;102218.25;5089500;28;1421;-49
2022/12/28 11:01:37;;;;;;;;;;;;;;;16.84;49.17;102215.00;5091027;28;1102;-48
2022/12/28 11:04:04;;;;;;;;;;;;;;;16.12;51.36;102219.63;5091336;28;1109;-51
2022/12/28 11:06:32;;;;;;;;;;;;;;;15.89;51.74;102225.88;5094759;28;1002;-51
2022/12/28 11:09:02;;;;;;;;;;;;;;;15.71;52.41;102229.47;5086492;28;1914;-47
2022/12/28 11:11:28;;;;;;;;;;;;;;;16.39;50.74;102224.66;5083408;28;1082;-51
2022/12/28 11:13:58;;;;;;;;;;;;;;;17.42;48.05;102224.25;5087632;28;2184;-50
2022/12/28 11:16:23;;;;;;;;;;;;;;;16.36;50.64;102225.97;5090964;28;1002;-52
2022/12/28 11:18:49;;;;;;;;;;;;;;;16.00;51.50;102222.31;5086008;28;1149;-52
2022/12/28 11:21:17;;;;;;;;;;;;;;;15.78;52.07;102224.75;5089836;28;941;-51
2022/12/28 11:23:42;;;;;;;;;;;;;;;15.67;52.43;102223.63;5091692;28;995;-47
2022/12/28 11:26:09;;;;;;;;;;;;;;;17.25;48.41;102210.41;5110729;28;1095;-51
2022/12/28 11:28:35;;;;;;;;;;;;;;;16.62;50.17;102207.38;5096290;28;1906;-51
2022/12/28 11:31:00;;;;;;;;;;;;;;;16.06;51.51;102201.34;5096349;28;1473;-48
2022/12/28 11:33:42;;;;;;;;;;;;;;;15.83;51.94;102204.88;5096161;28;990;-47
2022/12/28 11:36:14;;;;;;;;;;;;;;;15.66;52.33;102194.50;5076638;28;1095;-50
2022/12/28 11:38:40;;;;;;;;;;;;;;;16.62;50.19;102212.03;5090239;28;1019;-50
2022/12/28 11:41:08;;;;;;;;;;;;;;;17.19;48.11;102205.91;5096174;28;1047;-47
2022/12/28 11:43:38;;;;;;;;;;;;;;;16.25;50.71;102202.09;5079853;28;2231;-46
2022/12/28 11:46:07;;;;;;;;;;;;;;;15.92;51.24;102195.22;5087907;28;1388;-42
2022/12/28 11:48:41;;;;;;;;;;;;;;;15.76;51.60;102198.63;5088890;28;1910;-48
2022/12/28 11:51:14;;;;;;;;;;;;;;;17.10;48.54;102189.78;5090059;28;1570;-50
2022/12/28 11:53:43;;;;;;;;;;;;;;;16.60;49.34;102204.03;5082396;28;1192;-50
2022/12/28 11:56:09;;;;;;;;;;;;;;;16.02;50.63;102184.53;5093777;28;1035;-49
2022/12/28 11:58:37;;;;;;;;;;;;;;;15.78;51.28;102200.06;5081358;28;1081;-52
2022/12/28 12:01:03;;;;;;;;;;;;;;;16.32;50.24;102194.59;5075966;28;943;-48
2022/12/28 12:03:47;;;;;;;;;;;;;;;17.34;47.39;102186.16;5075950;28;1000;-46
2022/12/28 12:06:12;;;;;;;;;;;;;;;16.27;50.10;102186.25;5088479;28;1022;-47
2022/12/28 12:08:39;;;;;;;;;;;;;;;15.98;50.76;102179.75;5089495;28;1980;-44
2022/12/28 12:11:24;;;;;;;;;;;;;;;15.70;51.55;102175.69;5089326;28;1048;-45
2022/12/28 12:13:50;;;;;;;;;;;;;;;15.73;51.46;102178.78;5077671;28;2132;-51
2022/12/28 12:16:18;;;;;;;;;;;;;;;17.32;47.21;102169.91;5096062;28;1022;-51
2022/12/28 12:18:50;;;;;;;;;;;;;;;16.40;49.25;102177.75;5095922;28;1011;-49
2022/12/28 12:21:30;;;;;;;;;;;;;;;15.96;50.40;102166.25;5080442;28;1224;-49
2022/12/28 12:23:56;;;;;;;;;;;;;;;15.71;51.08;102175.47;5088285;28;1260;-45
2022/12/28 12:26:34;;;;;;;;;;;;;;;16.11;50.06;102168.53;5075830;28;1086;-45
2022/12/28 12:29:01;;;;;;;;;;;;;;;17.05;47.59;102173.19;5088283;28;1984;-47
2022/12/28 12:31:30;;;;;;;;;;;;;;;16.14;49.90;102178.22;5084133;28;1154;-46
2022/12/28 12:33:57;;;;;;;;;;;;;;;15.83;50.59;102172.78;5079739;28;1051;-45
2022/12/28 12:36:41;;;;;;;;;;;;;;;15.65;51.03;102170.06;5082990;28;864;-48
2022/12/28 12:39:07;;;;;;;;;;;;;;;16.72;48.49;102174.66;5081669;28;1121;-51
2022/12/28 12:41:35;;;;;;;;;;;;;;;17.14;47.10;102170.06;5095462;28;1050;-46
2022/12/28 12:44:09;;;;;;;;;;;;;;;16.21;49.28;102179.75;5080354;28;2239;-46
2022/12/28 12:46:47;;;;;;;;;;;;;;;15.91;49.95;102174.38;5094277;28;1087;-47
2022/12/28 12:49:24;;;;;;;;;;;;;;;15.67;50.94;102177.00;5082661;28;1980;-47
2022/12/28 12:52:05;;;;;;;;;;;;;;;16.47;48.97;102183.16;5091737;28;1186;-49
2022/12/28 12:54:30;;;;;;;;;;;;;;;16.99;47.48;102185.16;5095063;28;990;-49
2022/12/28 12:57:04;;;;;;;;;;;;;;;16.19;49.33;102186.59;5077726;28;1126;-45
2022/12/28 12:59:33;;;;;;;;;;;;;;;15.83;50.22;102191.16;5092089;28;1392;-47
2022/12/28 13:02:11;;;;;;;;;;;;;;;15.67;50.62;102190.72;5085859;28;1162;-47
2022/12/28 13:04:36;;;;;;;;;;;;;;;16.24;49.44;102189.44;5099096;28;1177;-46
2022/12/28 13:07:02;;;;;;;;;;;;;;;17.42;46.40;102188.50;5097711;28;1067;-48
2022/12/28 13:09:29;;;;;;;;;;;;;;;16.34;49.15;102197.94;5098861;28;1970;-48
2022/12/28 13:11:54;;;;;;;;;;;;;;;15.98;49.98;102190.72;5095191;28;1970;-46
2022/12/28 13:14:20;;;;;;;;;;;;;;;15.72;50.62;102188.13;5077685;28;1009;-46
2022/12/28 13:16:49;;;;;;;;;;;;;;;16.13;49.86;102187.50;5087912;28;975;-50